Archival Weather

Chicago O'Hare International

Chicago, Illinois (KORD)

Report from: Thursday, December 1, 2022 1:51 PM CST
Current time: Tuesday, February 27, 2024 5:14 AM CST

Current weather – Weather history – Daily summaries
Weather forecast

Temperature2.2°C (36.0°F)
Wind chill-1.3°C (29.6°F)
Dew point-10.6°C (12.9°F)
Winds 7 kts (3.6 m/s, 8.1 mph) South-Southwest (200°)
Visibility10 mi. (16.1 km)
Clouds Few clouds 11,000 ft. (3,353 m)
Few clouds 25,000 ft. (7,620 m)
Altimeter30.36 in.Hg (1028 mB)
Relative humidity38 %
Density altitude-2,049 ft. (-624 m)
Sea-level pressure102.9 kPa (1029 mB, 30.39 in.Hg)
Remarks Automated weather observing station with precipitation discriminator
Flight conditions Visual Meteorological Conditions
Raw dataKORD 011951Z 20007KT 10SM FEW110 FEW250 02/M11 A3036 RMK AO2 SLP292 T00221106
An error has occurred. This application may no longer respond until reloaded. Reload 🗙